Thursday, February 22, 2018, 5:34 AM EST
Back to Local

KELZ, Wellsville Municipal Airport

Location: Wellsville, NY, United States Lat: 42.1
Local Time: 5:34 AM EST (10:34 GMT) Lon: -78
Time Zone: US/Eastern Elev: 2122 ft

Show me the last for .
Show Decoded

2018-02-22 04:56 METAR KELZ 220956Z AUTO 05005KT 10SM OVC060 M01/M06 A3053 RMK AO2 SLP359
                 T10111056 =
2018-02-22 03:56 METAR KELZ 220856Z AUTO 08004KT 10SM OVC060 M01/M03 A3054 RMK AO2 SLP362
                 T10061033 55001 =
2018-02-22 02:56 METAR KELZ 220756Z AUTO 02006KT 10SM OVC065 01/M04 A3053 RMK AO2 SLP357
                 T00061039 =
2018-02-22 01:56 METAR KELZ 220656Z AUTO 36003KT 10SM OVC085 01/M04 A3054 RMK AO2 SLP360
                 T00061039 =
2018-02-22 00:56 METAR KELZ 220556Z AUTO 00000KT 10SM BKN075 OVC095 01/M03 A3054 RMK AO2 SLP356
                 60000 T00111028 10028 20011 53007 =
2018-02-21 23:56 METAR KELZ 220456Z AUTO 34005KT 10SM BKN065 OVC085 01/M02 A3053 RMK AO2 UPB25E34
                 SLP350 P0000 T00111022 402060011 =
2018-02-21 22:56 METAR KELZ 220356Z AUTO 34006KT 10SM FEW050 SCT070 OVC095 02/M02 A3052 RMK AO2
                 RAB26E37 SLP342 P0000 T00171017 =
2018-02-21 21:56 METAR KELZ 220256Z AUTO 34005KT 10SM FEW055 BKN080 OVC095 02/M02 A3052 RMK AO2
                 RAB22E32 SLP340 P0000 60000 T00171017 53010 =
2018-02-21 20:56 METAR KELZ 220156Z AUTO 33007KT 10SM OVC075 02/M01 A3050 RMK AO2 SLP336
                 T00171006 =
2018-02-21 19:56 METAR KELZ 220056Z AUTO VRB03KT 10SM SCT010 BKN041 OVC080 02/01 A3049 RMK AO2
                 SLP333 T00220006 =
2018-02-21 18:56 METAR KELZ 212356Z AUTO 35005KT 10SM BKN012 OVC039 03/01 A3049 RMK AO2 RAE54
                 SLP331 P0000 60005 T00280011 10128 20028 51031 =
2018-02-21 18:25 METAR KELZ 212325Z AUTO 35007KT 10SM -RA BKN013 OVC026 03/01 A3048 RMK AO2 P0000
                 T00280011 =
2018-02-21 17:56 METAR KELZ 212256Z AUTO 34007KT 10SM -RA SCT010 BKN025 OVC034 03/02 A3046 RMK
                 AO2 RAE17B45 SLP323 P0000 T00330017 =
2018-02-21 17:48 METAR KELZ 212248Z AUTO 35007KT 10SM -RA SCT010 OVC025 03/02 A3046 RMK AO2
                 RAE17B45 P0000 T00330022 =
2018-02-21 16:56 METAR KELZ 212156Z AUTO VRB05KT 10SM -RA OVC006 04/03 A3042 RMK AO2 CIG 003V008
                 SLP306 P0000 T00390033 =
2018-02-21 15:56 METAR KELZ 212056Z AUTO 34013KT 10SM -RA OVC007 06/04 A3039 RMK AO2 CIG 006V011
                 SLP294 P0001 60005 T00560044 51028 =
2018-02-21 14:56 METAR KELZ 211956Z AUTO 33015G23KT 4SM -RA BR BKN006 OVC010 07/07 A3036 RMK AO2
                 RAB03 CIG 003V009 SLP283 P0004 T00720067 =
2018-02-21 14:53 METAR KELZ 211953Z AUTO 33015G23KT 4SM -RA BR BKN006 BKN010 OVC017 07/07 A3035
                 RMK AO2 RAB03 CIG 003V008 P0004 =
2018-02-21 14:36 METAR KELZ 211936Z AUTO 32014G22KT 3SM -RA BR BKN004 OVC008 08/07 A3034 RMK AO2
                 RAB03 CIG 002V006 P0003 T00780072 =
2018-02-21 14:30 METAR KELZ 211930Z AUTO 33013KT 2SM -RA BR OVC002 08/07 A3033 RMK AO2 RAB03 CIG
                 001V006 P0003 T00780072 =
2018-02-21 14:14 METAR KELZ 211914Z AUTO 34015KT 1 3/4SM -RA BR OVC002 08/07 A3032 RMK AO2 RAB03
                 P0001 T00780072 =
2018-02-21 13:56 METAR KELZ 211856Z AUTO 01010KT 5SM BR BKN002 OVC006 09/08 A3030 RMK AO2 RAE53
                 SLP262 P0000 T00890083 =
2018-02-21 13:52 METAR KELZ 211852Z AUTO 01010KT 4SM -RA BR BKN002 OVC006 09/08 A3030 RMK AO2
                 P0000 =
2018-02-21 13:17 METAR KELZ 211817Z AUTO 32008KT 7SM -RA BKN007 OVC014 12/12 A3028 RMK AO2 CIG
                 006V012 P0000 T01220117 =
2018-02-21 13:10 METAR KELZ 211810Z AUTO 31010KT 5SM -RA BR SCT007 BKN012 OVC034 13/12 A3028 RMK
                 AO2 P0000 T01280117 =
2018-02-21 12:56 METAR KELZ 211756Z AUTO 31009KT 9SM -RA SCT007 OVC032 12/12 A3027 RMK AO2 RAB00
                 SLP251 P0001 60001 T01220117 10206 20122 53035 =
2018-02-21 12:39 METAR KELZ 211739Z AUTO 31010KT 8SM -RA FEW008 SCT024 OVC030 13/12 A3026 RMK AO2
                 RAB00 P0001 T01280117 =
2018-02-21 12:33 METAR KELZ 211733Z AUTO 31010KT 5SM -RA BR FEW011 BKN022 OVC028 13/12 A3026 RMK
                 AO2 RAB00 P0000 T01280117 =
2018-02-21 12:05 METAR KELZ 211705Z AUTO 32017G21KT 10SM -RA BKN011 BKN016 OVC033 14/12 A3025 RMK
                 AO2 RAB00 P0000 T01390117 =
2018-02-21 11:56 METAR KELZ 211656Z AUTO 32013KT 10SM BKN016 BKN030 OVC034 15/12 A3024 RMK AO2 PK
                 WND 30031/1629 WSHFT 1623 SLP237 T01500122 =
2018-02-21 11:43 METAR KELZ 211643Z AUTO 30013G24KT 10SM BKN030 BKN039 OVC047 16/12 A3023 RMK AO2
                 PK WND 30031/1629 WSHFT 1623 PRESRR T01610122 =
2018-02-21 10:56 METAR KELZ 211556Z AUTO 25013G29KT 10SM OVC033 19/12 A3019 RMK AO2 PK WND
                 26031/1539 SLP215 T01940122 =
2018-02-21 09:56 METAR KELZ 211456Z AUTO 23014G21KT 10SM BKN032 21/12 A3016 RMK AO2 SLP207
                 T02060122 50002 =
2018-02-21 08:56 METAR KELZ 211356Z AUTO 22009G20KT 10SM CLR 19/11 A3017 RMK AO2 SLP208 T01890111
                 =
2018-02-21 07:56 METAR KELZ 211256Z AUTO 21011G16KT 10SM FEW075 17/11 A3017 RMK AO2 SLP207
                 T01720106 =
2018-02-21 06:56 METAR KELZ 211156Z AUTO 22008G18KT 10SM BKN075 17/10 A3016 RMK AO2 SLP205
                 T01720100 10178 20161 56004 =
2018-02-21 05:56 METAR KELZ 211056Z AUTO 21011G17KT 10SM CLR 17/10 A3016 RMK AO2 SLP206 T01670100
                 =

Support USWX by starting your Amazon purchase here.